sensor_id;sensor_type;location;lat;lon;timestamp;P1;durP1;ratioP1;P2;durP2;ratioP2
54167;SDS011;40072;50.958;3.592;2022-12-18T00:00:28;82.45;;;41.22;;
54167;SDS011;40072;50.958;3.592;2022-12-18T00:02:55;82.75;;;42.05;;
54167;SDS011;40072;50.958;3.592;2022-12-18T00:05:20;74.03;;;32.92;;
54167;SDS011;40072;50.958;3.592;2022-12-18T00:07:46;62.63;;;29.15;;
54167;SDS011;40072;50.958;3.592;2022-12-18T00:10:12;54.45;;;25.35;;
54167;SDS011;40072;50.958;3.592;2022-12-18T00:12:37;71.50;;;36.00;;
54167;SDS011;40072;50.958;3.592;2022-12-18T00:15:03;76.15;;;35.55;;
54167;SDS011;40072;50.958;3.592;2022-12-18T00:17:29;69.82;;;34.03;;
54167;SDS011;40072;50.958;3.592;2022-12-18T00:19:55;72.57;;;35.33;;
54167;SDS011;40072;50.958;3.592;2022-12-18T00:22:21;72.40;;;37.08;;
54167;SDS011;40072;50.958;3.592;2022-12-18T00:24:46;65.65;;;33.50;;
54167;SDS011;40072;50.958;3.592;2022-12-18T00:27:12;72.63;;;33.92;;
54167;SDS011;40072;50.958;3.592;2022-12-18T00:29:37;70.75;;;33.78;;
54167;SDS011;40072;50.958;3.592;2022-12-18T00:32:05;65.10;;;32.72;;
54167;SDS011;40072;50.958;3.592;2022-12-18T00:34:30;72.88;;;34.55;;
54167;SDS011;40072;50.958;3.592;2022-12-18T00:36:56;76.25;;;35.83;;
54167;SDS011;40072;50.958;3.592;2022-12-18T00:39:21;69.03;;;34.53;;
54167;SDS011;40072;50.958;3.592;2022-12-18T00:41:47;70.30;;;34.58;;
54167;SDS011;40072;50.958;3.592;2022-12-18T00:44:32;63.05;;;32.90;;
54167;SDS011;40072;50.958;3.592;2022-12-18T00:46:57;64.00;;;29.25;;
54167;SDS011;40072;50.958;3.592;2022-12-18T00:49:23;64.63;;;30.95;;
54167;SDS011;40072;50.958;3.592;2022-12-18T00:51:49;61.70;;;30.92;;
54167;SDS011;40072;50.958;3.592;2022-12-18T00:54:15;69.25;;;34.58;;
54167;SDS011;40072;50.958;3.592;2022-12-18T00:56:41;62.30;;;31.58;;
54167;SDS011;40072;50.958;3.592;2022-12-18T00:59:07;62.20;;;30.73;;
54167;SDS011;40072;50.958;3.592;2022-12-18T01:01:33;60.25;;;31.23;;
54167;SDS011;40072;50.958;3.592;2022-12-18T01:03:59;64.93;;;30.08;;
54167;SDS011;40072;50.958;3.592;2022-12-18T01:06:27;55.20;;;28.08;;
54167;SDS011;40072;50.958;3.592;2022-12-18T01:08:52;53.03;;;26.35;;
54167;SDS011;40072;50.958;3.592;2022-12-18T01:11:19;60.50;;;28.77;;
54167;SDS011;40072;50.958;3.592;2022-12-18T01:13:45;53.55;;;27.85;;
54167;SDS011;40072;50.958;3.592;2022-12-18T01:16:12;56.65;;;27.90;;
54167;SDS011;40072;50.958;3.592;2022-12-18T01:18:39;57.05;;;26.98;;
54167;SDS011;40072;50.958;3.592;2022-12-18T01:21:06;50.25;;;25.50;;
54167;SDS011;40072;50.958;3.592;2022-12-18T01:23:36;55.58;;;23.73;;
54167;SDS011;40072;50.958;3.592;2022-12-18T01:26:09;62.47;;;31.60;;
54167;SDS011;40072;50.958;3.592;2022-12-18T01:28:37;66.20;;;29.20;;
54167;SDS011;40072;50.958;3.592;2022-12-18T01:31:20;64.35;;;31.98;;
54167;SDS011;40072;50.958;3.592;2022-12-18T01:33:48;58.55;;;30.55;;
54167;SDS011;40072;50.958;3.592;2022-12-18T01:36:18;60.13;;;30.75;;
54167;SDS011;40072;50.958;3.592;2022-12-18T01:38:46;60.30;;;30.80;;
54167;SDS011;40072;50.958;3.592;2022-12-18T01:41:13;61.08;;;30.20;;
54167;SDS011;40072;50.958;3.592;2022-12-18T01:43:50;64.07;;;31.52;;
54167;SDS011;40072;50.958;3.592;2022-12-18T01:46:17;56.03;;;29.00;;
54167;SDS011;40072;50.958;3.592;2022-12-18T01:48:45;59.72;;;28.33;;
54167;SDS011;40072;50.958;3.592;2022-12-18T01:51:14;62.33;;;31.40;;
54167;SDS011;40072;50.958;3.592;2022-12-18T01:53:40;62.92;;;30.10;;
54167;SDS011;40072;50.958;3.592;2022-12-18T01:56:10;64.43;;;31.75;;
54167;SDS011;40072;50.958;3.592;2022-12-18T01:58:51;62.13;;;29.70;;
54167;SDS011;40072;50.958;3.592;2022-12-18T02:01:24;58.70;;;27.65;;
54167;SDS011;40072;50.958;3.592;2022-12-18T02:03:51;52.85;;;26.65;;
54167;SDS011;40072;50.958;3.592;2022-12-18T02:08:55;45.88;;;20.48;;
54167;SDS011;40072;50.958;3.592;2022-12-18T02:19:34;50.78;;;26.17;;
54167;SDS011;40072;50.958;3.592;2022-12-18T02:27:33;51.70;;;25.42;;
54167;SDS011;40072;50.958;3.592;2022-12-18T02:30:02;47.90;;;25.80;;
54167;SDS011;40072;50.958;3.592;2022-12-18T02:32:31;50.63;;;23.70;;
54167;SDS011;40072;50.958;3.592;2022-12-18T02:35:01;56.83;;;24.85;;
54167;SDS011;40072;50.958;3.592;2022-12-18T02:37:29;35.60;;;16.50;;
54167;SDS011;40072;50.958;3.592;2022-12-18T02:39:57;55.65;;;27.23;;
54167;SDS011;40072;50.958;3.592;2022-12-18T02:42:24;54.63;;;27.55;;
54167;SDS011;40072;50.958;3.592;2022-12-18T02:44:52;57.13;;;28.35;;
54167;SDS011;40072;50.958;3.592;2022-12-18T02:47:19;57.55;;;27.88;;
54167;SDS011;40072;50.958;3.592;2022-12-18T02:57:34;56.87;;;28.37;;
54167;SDS011;40072;50.958;3.592;2022-12-18T03:00:16;56.47;;;29.10;;
54167;SDS011;40072;50.958;3.592;2022-12-18T03:05:31;54.83;;;26.73;;
54167;SDS011;40072;50.958;3.592;2022-12-18T03:08:03;54.33;;;27.92;;
54167;SDS011;40072;50.958;3.592;2022-12-18T03:10:34;55.83;;;28.50;;
54167;SDS011;40072;50.958;3.592;2022-12-18T03:13:07;52.70;;;28.02;;
54167;SDS011;40072;50.958;3.592;2022-12-18T03:15:37;53.42;;;27.42;;
54167;SDS011;40072;50.958;3.592;2022-12-18T03:18:12;63.08;;;28.48;;
54167;SDS011;40072;50.958;3.592;2022-12-18T03:20:48;57.58;;;26.98;;
54167;SDS011;40072;50.958;3.592;2022-12-18T03:23:17;60.47;;;29.40;;
54167;SDS011;40072;50.958;3.592;2022-12-18T03:25:47;55.15;;;28.10;;
54167;SDS011;40072;50.958;3.592;2022-12-18T03:28:19;59.00;;;29.52;;
54167;SDS011;40072;50.958;3.592;2022-12-18T03:35:45;58.80;;;29.55;;
54167;SDS011;40072;50.958;3.592;2022-12-18T03:38:11;60.78;;;30.35;;
54167;SDS011;40072;50.958;3.592;2022-12-18T03:40:45;60.78;;;31.35;;
54167;SDS011;40072;50.958;3.592;2022-12-18T03:46:05;56.85;;;27.13;;
54167;SDS011;40072;50.958;3.592;2022-12-18T03:48:43;52.20;;;24.98;;
54167;SDS011;40072;50.958;3.592;2022-12-18T03:54:07;49.20;;;18.63;;
54167;SDS011;40072;50.958;3.592;2022-12-18T03:56:36;47.05;;;23.48;;
54167;SDS011;40072;50.958;3.592;2022-12-18T03:59:08;33.28;;;16.63;;
54167;SDS011;40072;50.958;3.592;2022-12-18T04:01:40;27.20;;;14.80;;
54167;SDS011;40072;50.958;3.592;2022-12-18T04:04:08;40.03;;;19.33;;
54167;SDS011;40072;50.958;3.592;2022-12-18T04:06:36;54.50;;;28.23;;
54167;SDS011;40072;50.958;3.592;2022-12-18T04:09:03;53.33;;;26.23;;
54167;SDS011;40072;50.958;3.592;2022-12-18T04:11:29;25.63;;;12.40;;
54167;SDS011;40072;50.958;3.592;2022-12-18T04:13:55;63.88;;;30.48;;
54167;SDS011;40072;50.958;3.592;2022-12-18T04:16:22;25.90;;;10.82;;
54167;SDS011;40072;50.958;3.592;2022-12-18T04:18:49;62.95;;;28.40;;
54167;SDS011;40072;50.958;3.592;2022-12-18T04:21:15;66.78;;;33.75;;
54167;SDS011;40072;50.958;3.592;2022-12-18T04:23:40;63.20;;;28.83;;
54167;SDS011;40072;50.958;3.592;2022-12-18T04:26:06;57.63;;;27.75;;
54167;SDS011;40072;50.958;3.592;2022-12-18T04:28:32;55.55;;;25.08;;
54167;SDS011;40072;50.958;3.592;2022-12-18T04:30:57;62.10;;;32.08;;
54167;SDS011;40072;50.958;3.592;2022-12-18T04:33:23;75.53;;;32.28;;
54167;SDS011;40072;50.958;3.592;2022-12-18T04:35:48;70.05;;;33.55;;
54167;SDS011;40072;50.958;3.592;2022-12-18T04:38:14;74.85;;;36.33;;
54167;SDS011;40072;50.958;3.592;2022-12-18T04:40:40;59.90;;;27.33;;
54167;SDS011;40072;50.958;3.592;2022-12-18T04:43:06;66.38;;;32.72;;
54167;SDS011;40072;50.958;3.592;2022-12-18T04:45:32;64.07;;;30.42;;
54167;SDS011;40072;50.958;3.592;2022-12-18T04:47:59;63.92;;;30.52;;
54167;SDS011;40072;50.958;3.592;2022-12-18T04:50:25;65.78;;;31.98;;
54167;SDS011;40072;50.958;3.592;2022-12-18T04:52:51;71.57;;;33.35;;
54167;SDS011;40072;50.958;3.592;2022-12-18T04:55:17;68.28;;;30.02;;
54167;SDS011;40072;50.958;3.592;2022-12-18T04:57:43;65.13;;;33.40;;
54167;SDS011;40072;50.958;3.592;2022-12-18T05:00:09;59.85;;;31.23;;
54167;SDS011;40072;50.958;3.592;2022-12-18T05:02:35;68.57;;;30.38;;
54167;SDS011;40072;50.958;3.592;2022-12-18T05:05:01;61.75;;;29.85;;
54167;SDS011;40072;50.958;3.592;2022-12-18T05:07:27;63.47;;;31.17;;
54167;SDS011;40072;50.958;3.592;2022-12-18T05:09:52;53.47;;;25.13;;
54167;SDS011;40072;50.958;3.592;2022-12-18T05:12:18;44.00;;;20.08;;
54167;SDS011;40072;50.958;3.592;2022-12-18T05:14:43;57.55;;;23.90;;
54167;SDS011;40072;50.958;3.592;2022-12-18T05:17:09;65.03;;;30.00;;
54167;SDS011;40072;50.958;3.592;2022-12-18T05:19:35;62.55;;;31.70;;
54167;SDS011;40072;50.958;3.592;2022-12-18T05:22:00;59.25;;;30.42;;
54167;SDS011;40072;50.958;3.592;2022-12-18T05:24:26;66.55;;;31.95;;
54167;SDS011;40072;50.958;3.592;2022-12-18T05:26:52;61.30;;;30.10;;
54167;SDS011;40072;50.958;3.592;2022-12-18T05:29:18;66.68;;;30.35;;
54167;SDS011;40072;50.958;3.592;2022-12-18T05:31:43;54.90;;;27.48;;
54167;SDS011;40072;50.958;3.592;2022-12-18T05:34:09;50.88;;;25.50;;
54167;SDS011;40072;50.958;3.592;2022-12-18T05:36:35;60.55;;;28.63;;
54167;SDS011;40072;50.958;3.592;2022-12-18T05:39:00;65.43;;;29.15;;
54167;SDS011;40072;50.958;3.592;2022-12-18T05:41:26;64.50;;;29.33;;
54167;SDS011;40072;50.958;3.592;2022-12-18T05:43:52;55.88;;;28.42;;
54167;SDS011;40072;50.958;3.592;2022-12-18T05:46:18;47.85;;;21.15;;
54167;SDS011;40072;50.958;3.592;2022-12-18T05:48:44;50.65;;;22.67;;
54167;SDS011;40072;50.958;3.592;2022-12-18T05:51:11;49.22;;;24.98;;
54167;SDS011;40072;50.958;3.592;2022-12-18T05:53:39;43.13;;;21.20;;
54167;SDS011;40072;50.958;3.592;2022-12-18T05:56:09;50.38;;;25.25;;
54167;SDS011;40072;50.958;3.592;2022-12-18T05:58:39;26.83;;;11.95;;
54167;SDS011;40072;50.958;3.592;2022-12-18T06:01:13;56.50;;;28.63;;
54167;SDS011;40072;50.958;3.592;2022-12-18T06:03:41;28.98;;;12.88;;
54167;SDS011;40072;50.958;3.592;2022-12-18T06:06:40;37.75;;;14.55;;
54167;SDS011;40072;50.958;3.592;2022-12-18T06:08:59;26.85;;;11.48;;
54167;SDS011;40072;50.958;3.592;2022-12-18T06:11:26;53.58;;;25.95;;
54167;SDS011;40072;50.958;3.592;2022-12-18T06:13:53;48.85;;;23.08;;
54167;SDS011;40072;50.958;3.592;2022-12-18T06:16:19;35.63;;;16.25;;
54167;SDS011;40072;50.958;3.592;2022-12-18T06:18:45;33.38;;;15.40;;
54167;SDS011;40072;50.958;3.592;2022-12-18T06:21:11;35.83;;;17.02;;
54167;SDS011;40072;50.958;3.592;2022-12-18T06:23:38;51.35;;;21.92;;
54167;SDS011;40072;50.958;3.592;2022-12-18T06:26:05;51.55;;;24.88;;
54167;SDS011;40072;50.958;3.592;2022-12-18T06:28:31;51.88;;;24.65;;
54167;SDS011;40072;50.958;3.592;2022-12-18T06:30:57;52.08;;;22.40;;
54167;SDS011;40072;50.958;3.592;2022-12-18T06:33:25;46.60;;;24.75;;
54167;SDS011;40072;50.958;3.592;2022-12-18T06:35:51;44.93;;;23.17;;
54167;SDS011;40072;50.958;3.592;2022-12-18T06:38:17;63.63;;;25.80;;
54167;SDS011;40072;50.958;3.592;2022-12-18T06:40:42;39.72;;;15.82;;
54167;SDS011;40072;50.958;3.592;2022-12-18T06:43:08;39.90;;;18.05;;
54167;SDS011;40072;50.958;3.592;2022-12-18T06:45:34;46.00;;;22.00;;
54167;SDS011;40072;50.958;3.592;2022-12-18T06:47:59;55.65;;;26.52;;
54167;SDS011;40072;50.958;3.592;2022-12-18T06:50:25;48.63;;;22.48;;
54167;SDS011;40072;50.958;3.592;2022-12-18T06:52:51;37.60;;;19.40;;
54167;SDS011;40072;50.958;3.592;2022-12-18T06:55:17;52.85;;;23.38;;
54167;SDS011;40072;50.958;3.592;2022-12-18T06:57:42;46.60;;;22.13;;
54167;SDS011;40072;50.958;3.592;2022-12-18T07:00:08;48.92;;;23.55;;
54167;SDS011;40072;50.958;3.592;2022-12-18T07:02:36;44.70;;;22.38;;
54167;SDS011;40072;50.958;3.592;2022-12-18T07:05:01;50.45;;;25.38;;
54167;SDS011;40072;50.958;3.592;2022-12-18T07:07:27;33.08;;;12.38;;
54167;SDS011;40072;50.958;3.592;2022-12-18T07:09:53;35.65;;;20.38;;
54167;SDS011;40072;50.958;3.592;2022-12-18T07:12:18;21.00;;;12.00;;
54167;SDS011;40072;50.958;3.592;2022-12-18T07:14:44;22.73;;;11.00;;
54167;SDS011;40072;50.958;3.592;2022-12-18T07:17:10;45.97;;;23.15;;
54167;SDS011;40072;50.958;3.592;2022-12-18T07:19:35;33.55;;;15.73;;
54167;SDS011;40072;50.958;3.592;2022-12-18T07:22:01;35.97;;;17.13;;
54167;SDS011;40072;50.958;3.592;2022-12-18T07:24:27;42.42;;;19.77;;
54167;SDS011;40072;50.958;3.592;2022-12-18T07:26:53;49.28;;;21.95;;
54167;SDS011;40072;50.958;3.592;2022-12-18T07:29:18;39.65;;;16.15;;
54167;SDS011;40072;50.958;3.592;2022-12-18T07:31:44;29.13;;;16.50;;
54167;SDS011;40072;50.958;3.592;2022-12-18T07:34:13;27.50;;;12.68;;
54167;SDS011;40072;50.958;3.592;2022-12-18T07:36:40;21.80;;;10.35;;
54167;SDS011;40072;50.958;3.592;2022-12-18T07:39:06;20.20;;;9.60;;
54167;SDS011;40072;50.958;3.592;2022-12-18T07:41:32;35.45;;;17.90;;
54167;SDS011;40072;50.958;3.592;2022-12-18T07:43:58;34.05;;;16.35;;
54167;SDS011;40072;50.958;3.592;2022-12-18T07:46:23;25.25;;;12.30;;
54167;SDS011;40072;50.958;3.592;2022-12-18T07:48:49;18.50;;;11.43;;
54167;SDS011;40072;50.958;3.592;2022-12-18T07:51:15;29.13;;;14.40;;
54167;SDS011;40072;50.958;3.592;2022-12-18T07:53:41;38.85;;;22.08;;
54167;SDS011;40072;50.958;3.592;2022-12-18T07:56:08;33.42;;;15.27;;
54167;SDS011;40072;50.958;3.592;2022-12-18T07:58:36;22.52;;;12.35;;
54167;SDS011;40072;50.958;3.592;2022-12-18T08:01:02;33.13;;;16.20;;
54167;SDS011;40072;50.958;3.592;2022-12-18T08:03:32;35.05;;;18.17;;
54167;SDS011;40072;50.958;3.592;2022-12-18T08:05:59;31.45;;;14.75;;
54167;SDS011;40072;50.958;3.592;2022-12-18T08:08:29;32.17;;;15.32;;
54167;SDS011;40072;50.958;3.592;2022-12-18T08:10:55;39.17;;;20.33;;
54167;SDS011;40072;50.958;3.592;2022-12-18T08:13:21;46.15;;;23.73;;
54167;SDS011;40072;50.958;3.592;2022-12-18T08:16:00;41.35;;;23.05;;
54167;SDS011;40072;50.958;3.592;2022-12-18T08:18:29;36.95;;;19.25;;
54167;SDS011;40072;50.958;3.592;2022-12-18T08:20:56;33.40;;;19.35;;
54167;SDS011;40072;50.958;3.592;2022-12-18T08:23:22;37.22;;;18.40;;
54167;SDS011;40072;50.958;3.592;2022-12-18T08:25:48;30.20;;;17.17;;
54167;SDS011;40072;50.958;3.592;2022-12-18T08:28:14;31.08;;;15.70;;
54167;SDS011;40072;50.958;3.592;2022-12-18T08:30:40;28.92;;;15.43;;
54167;SDS011;40072;50.958;3.592;2022-12-18T08:33:07;26.60;;;14.05;;
54167;SDS011;40072;50.958;3.592;2022-12-18T08:35:36;26.52;;;14.27;;
54167;SDS011;40072;50.958;3.592;2022-12-18T08:38:02;23.02;;;13.55;;
54167;SDS011;40072;50.958;3.592;2022-12-18T08:40:30;29.53;;;15.27;;
54167;SDS011;40072;50.958;3.592;2022-12-18T08:42:56;23.60;;;10.30;;
54167;SDS011;40072;50.958;3.592;2022-12-18T08:45:40;25.25;;;14.52;;
54167;SDS011;40072;50.958;3.592;2022-12-18T08:48:05;22.90;;;12.23;;
54167;SDS011;40072;50.958;3.592;2022-12-18T08:50:31;23.60;;;13.20;;
54167;SDS011;40072;50.958;3.592;2022-12-18T08:52:57;22.70;;;12.13;;
54167;SDS011;40072;50.958;3.592;2022-12-18T08:55:23;19.83;;;11.73;;
54167;SDS011;40072;50.958;3.592;2022-12-18T08:57:48;21.77;;;12.50;;
54167;SDS011;40072;50.958;3.592;2022-12-18T09:00:15;22.75;;;11.55;;
54167;SDS011;40072;50.958;3.592;2022-12-18T09:02:41;20.55;;;12.05;;
54167;SDS011;40072;50.958;3.592;2022-12-18T09:05:06;18.90;;;11.52;;
54167;SDS011;40072;50.958;3.592;2022-12-18T09:07:32;20.45;;;11.65;;
54167;SDS011;40072;50.958;3.592;2022-12-18T09:09:58;21.98;;;12.55;;
54167;SDS011;40072;50.958;3.592;2022-12-18T09:12:23;19.50;;;11.50;;
54167;SDS011;40072;50.958;3.592;2022-12-18T09:14:49;18.42;;;10.05;;
54167;SDS011;40072;50.958;3.592;2022-12-18T09:17:15;19.13;;;11.05;;
54167;SDS011;40072;50.958;3.592;2022-12-18T09:19:41;18.00;;;10.07;;
54167;SDS011;40072;50.958;3.592;2022-12-18T09:22:06;19.50;;;10.82;;
54167;SDS011;40072;50.958;3.592;2022-12-18T09:24:32;18.98;;;11.30;;
54167;SDS011;40072;50.958;3.592;2022-12-18T09:26:58;18.10;;;11.15;;
54167;SDS011;40072;50.958;3.592;2022-12-18T09:29:23;23.55;;;10.88;;
54167;SDS011;40072;50.958;3.592;2022-12-18T09:31:49;17.08;;;11.13;;
54167;SDS011;40072;50.958;3.592;2022-12-18T09:34:15;17.20;;;10.80;;
54167;SDS011;40072;50.958;3.592;2022-12-18T09:36:41;16.48;;;10.85;;
54167;SDS011;40072;50.958;3.592;2022-12-18T09:39:07;15.88;;;9.10;;
54167;SDS011;40072;50.958;3.592;2022-12-18T09:44:44;18.10;;;10.95;;
54167;SDS011;40072;50.958;3.592;2022-12-18T09:46:48;19.80;;;11.63;;
54167;SDS011;40072;50.958;3.592;2022-12-18T09:49:21;17.52;;;9.90;;
54167;SDS011;40072;50.958;3.592;2022-12-18T09:51:52;18.73;;;10.52;;
54167;SDS011;40072;50.958;3.592;2022-12-18T09:54:32;15.20;;;9.80;;
54167;SDS011;40072;50.958;3.592;2022-12-18T09:57:03;17.45;;;10.00;;
54167;SDS011;40072;50.958;3.592;2022-12-18T09:59:38;19.38;;;10.45;;
54167;SDS011;40072;50.958;3.592;2022-12-18T10:02:18;16.88;;;9.77;;
54167;SDS011;40072;50.958;3.592;2022-12-18T10:04:48;16.40;;;10.25;;
54167;SDS011;40072;50.958;3.592;2022-12-18T10:07:32;16.27;;;9.88;;
54167;SDS011;40072;50.958;3.592;2022-12-18T10:10:10;17.90;;;10.63;;
54167;SDS011;40072;50.958;3.592;2022-12-18T10:12:53;19.55;;;10.63;;
54167;SDS011;40072;50.958;3.592;2022-12-18T10:20:51;15.88;;;9.77;;
54167;SDS011;40072;50.958;3.592;2022-12-18T10:26:03;18.27;;;10.73;;
54167;SDS011;40072;50.958;3.592;2022-12-18T10:28:35;19.88;;;11.57;;
54167;SDS011;40072;50.958;3.592;2022-12-18T10:33:37;17.92;;;10.57;;
54167;SDS011;40072;50.958;3.592;2022-12-18T10:36:03;20.58;;;11.32;;
54167;SDS011;40072;50.958;3.592;2022-12-18T10:38:30;19.67;;;11.30;;
54167;SDS011;40072;50.958;3.592;2022-12-18T10:41:01;19.75;;;11.98;;
54167;SDS011;40072;50.958;3.592;2022-12-18T10:43:28;24.30;;;13.00;;
54167;SDS011;40072;50.958;3.592;2022-12-18T10:46:00;35.03;;;18.77;;
54167;SDS011;40072;50.958;3.592;2022-12-18T10:48:28;31.58;;;16.80;;
54167;SDS011;40072;50.958;3.592;2022-12-18T10:50:56;31.95;;;15.68;;
54167;SDS011;40072;50.958;3.592;2022-12-18T10:53:24;34.13;;;19.42;;
54167;SDS011;40072;50.958;3.592;2022-12-18T10:55:52;26.15;;;15.02;;
54167;SDS011;40072;50.958;3.592;2022-12-18T10:58:25;24.10;;;12.40;;
54167;SDS011;40072;50.958;3.592;2022-12-18T11:01:15;22.60;;;12.43;;
54167;SDS011;40072;50.958;3.592;2022-12-18T11:06:19;23.40;;;12.52;;
54167;SDS011;40072;50.958;3.592;2022-12-18T11:09:02;22.30;;;13.65;;
54167;SDS011;40072;50.958;3.592;2022-12-18T11:11:30;30.83;;;14.77;;
54167;SDS011;40072;50.958;3.592;2022-12-18T11:14:12;20.92;;;13.07;;
54167;SDS011;40072;50.958;3.592;2022-12-18T11:16:43;19.20;;;12.60;;
54167;SDS011;40072;50.958;3.592;2022-12-18T11:19:44;18.23;;;12.35;;
54167;SDS011;40072;50.958;3.592;2022-12-18T11:22:21;20.23;;;12.65;;
54167;SDS011;40072;50.958;3.592;2022-12-18T11:25:02;20.33;;;12.65;;
54167;SDS011;40072;50.958;3.592;2022-12-18T11:28:24;21.25;;;13.52;;
54167;SDS011;40072;50.958;3.592;2022-12-18T11:33:37;22.83;;;13.95;;
54167;SDS011;40072;50.958;3.592;2022-12-18T11:36:06;22.85;;;13.85;;
54167;SDS011;40072;50.958;3.592;2022-12-18T11:38:35;20.85;;;13.48;;
54167;SDS011;40072;50.958;3.592;2022-12-18T11:43:45;24.33;;;14.70;;
54167;SDS011;40072;50.958;3.592;2022-12-18T11:46:18;22.25;;;13.73;;
54167;SDS011;40072;50.958;3.592;2022-12-18T11:51:32;23.42;;;13.77;;
54167;SDS011;40072;50.958;3.592;2022-12-18T11:54:22;24.45;;;14.70;;
54167;SDS011;40072;50.958;3.592;2022-12-18T11:56:53;22.92;;;13.77;;
54167;SDS011;40072;50.958;3.592;2022-12-18T12:02:29;26.10;;;14.10;;
54167;SDS011;40072;50.958;3.592;2022-12-18T12:07:45;28.90;;;15.32;;
54167;SDS011;40072;50.958;3.592;2022-12-18T12:21:05;24.83;;;15.73;;
54167;SDS011;40072;50.958;3.592;2022-12-18T12:26:31;28.95;;;16.30;;
54167;SDS011;40072;50.958;3.592;2022-12-18T12:40:39;28.08;;;17.23;;
54167;SDS011;40072;50.958;3.592;2022-12-18T12:46:03;30.10;;;18.08;;
54167;SDS011;40072;50.958;3.592;2022-12-18T12:51:17;30.90;;;18.27;;
54167;SDS011;40072;50.958;3.592;2022-12-18T12:53:53;30.00;;;19.35;;
54167;SDS011;40072;50.958;3.592;2022-12-18T12:56:21;30.23;;;18.17;;
54167;SDS011;40072;50.958;3.592;2022-12-18T13:01:41;33.40;;;19.40;;
54167;SDS011;40072;50.958;3.592;2022-12-18T13:04:15;31.02;;;19.88;;
54167;SDS011;40072;50.958;3.592;2022-12-18T13:07:14;29.33;;;16.77;;
54167;SDS011;40072;50.958;3.592;2022-12-18T13:20:35;31.77;;;18.42;;
54167;SDS011;40072;50.958;3.592;2022-12-18T13:31:11;38.83;;;20.23;;
54167;SDS011;40072;50.958;3.592;2022-12-18T13:33:38;38.92;;;20.48;;
54167;SDS011;40072;50.958;3.592;2022-12-18T13:36:30;33.08;;;20.15;;
54167;SDS011;40072;50.958;3.592;2022-12-18T13:39:10;36.22;;;21.98;;
54167;SDS011;40072;50.958;3.592;2022-12-18T13:41:47;35.97;;;20.67;;
54167;SDS011;40072;50.958;3.592;2022-12-18T13:47:05;33.58;;;19.33;;
54167;SDS011;40072;50.958;3.592;2022-12-18T13:49:50;36.72;;;23.23;;
54167;SDS011;40072;50.958;3.592;2022-12-18T13:52:17;37.28;;;21.27;;
54167;SDS011;40072;50.958;3.592;2022-12-18T13:54:53;35.05;;;21.58;;
54167;SDS011;40072;50.958;3.592;2022-12-18T13:57:25;34.40;;;20.92;;
54167;SDS011;40072;50.958;3.592;2022-12-18T14:00:14;36.83;;;21.80;;
54167;SDS011;40072;50.958;3.592;2022-12-18T14:02:44;39.85;;;23.27;;
54167;SDS011;40072;50.958;3.592;2022-12-18T14:07:59;54.75;;;28.65;;
54167;SDS011;40072;50.958;3.592;2022-12-18T14:10:41;45.47;;;24.65;;
54167;SDS011;40072;50.958;3.592;2022-12-18T14:13:09;38.85;;;23.13;;
54167;SDS011;40072;50.958;3.592;2022-12-18T14:15:40;35.28;;;21.58;;
54167;SDS011;40072;50.958;3.592;2022-12-18T14:21:28;39.00;;;22.80;;
54167;SDS011;40072;50.958;3.592;2022-12-18T14:26:39;36.15;;;22.08;;
54167;SDS011;40072;50.958;3.592;2022-12-18T14:29:27;34.13;;;20.85;;
54167;SDS011;40072;50.958;3.592;2022-12-18T14:34:46;39.80;;;21.48;;
54167;SDS011;40072;50.958;3.592;2022-12-18T14:37:13;35.83;;;20.88;;
54167;SDS011;40072;50.958;3.592;2022-12-18T14:39:51;40.88;;;21.38;;
54167;SDS011;40072;50.958;3.592;2022-12-18T14:42:18;36.38;;;21.73;;
54167;SDS011;40072;50.958;3.592;2022-12-18T14:44:44;35.78;;;21.58;;
54167;SDS011;40072;50.958;3.592;2022-12-18T14:47:13;36.40;;;21.63;;
54167;SDS011;40072;50.958;3.592;2022-12-18T14:49:40;34.17;;;21.73;;
54167;SDS011;40072;50.958;3.592;2022-12-18T14:52:28;43.60;;;24.08;;
54167;SDS011;40072;50.958;3.592;2022-12-18T14:54:56;35.20;;;22.00;;
54167;SDS011;40072;50.958;3.592;2022-12-18T14:57:23;37.03;;;21.45;;
54167;SDS011;40072;50.958;3.592;2022-12-18T14:59:51;36.20;;;20.17;;
54167;SDS011;40072;50.958;3.592;2022-12-18T15:05:14;37.28;;;20.73;;
54167;SDS011;40072;50.958;3.592;2022-12-18T15:07:46;38.75;;;21.80;;
54167;SDS011;40072;50.958;3.592;2022-12-18T15:10:15;36.00;;;20.42;;
54167;SDS011;40072;50.958;3.592;2022-12-18T15:12:50;35.90;;;21.20;;
54167;SDS011;40072;50.958;3.592;2022-12-18T15:18:03;34.17;;;20.80;;
54167;SDS011;40072;50.958;3.592;2022-12-18T15:20:33;38.05;;;21.45;;
54167;SDS011;40072;50.958;3.592;2022-12-18T15:23:04;37.88;;;22.52;;
54167;SDS011;40072;50.958;3.592;2022-12-18T15:25:36;43.38;;;21.98;;
54167;SDS011;40072;50.958;3.592;2022-12-18T15:28:03;37.83;;;22.08;;
54167;SDS011;40072;50.958;3.592;2022-12-18T15:30:40;37.03;;;21.77;;
54167;SDS011;40072;50.958;3.592;2022-12-18T15:33:27;40.28;;;22.10;;
54167;SDS011;40072;50.958;3.592;2022-12-18T15:35:57;39.33;;;22.52;;
54167;SDS011;40072;50.958;3.592;2022-12-18T15:38:24;39.28;;;23.30;;
54167;SDS011;40072;50.958;3.592;2022-12-18T15:40:50;40.33;;;22.55;;
54167;SDS011;40072;50.958;3.592;2022-12-18T15:43:17;39.15;;;23.13;;
54167;SDS011;40072;50.958;3.592;2022-12-18T15:46:00;45.42;;;25.13;;
54167;SDS011;40072;50.958;3.592;2022-12-18T15:48:32;62.35;;;32.35;;
54167;SDS011;40072;50.958;3.592;2022-12-18T15:50:59;46.20;;;24.92;;
54167;SDS011;40072;50.958;3.592;2022-12-18T15:53:27;47.40;;;26.52;;
54167;SDS011;40072;50.958;3.592;2022-12-18T15:55:56;52.33;;;27.67;;
54167;SDS011;40072;50.958;3.592;2022-12-18T15:58:41;59.05;;;30.55;;
54167;SDS011;40072;50.958;3.592;2022-12-18T16:01:08;44.20;;;24.08;;
54167;SDS011;40072;50.958;3.592;2022-12-18T16:03:35;43.83;;;24.20;;
54167;SDS011;40072;50.958;3.592;2022-12-18T16:06:01;68.70;;;41.80;;
54167;SDS011;40072;50.958;3.592;2022-12-18T16:08:28;40.83;;;23.05;;
54167;SDS011;40072;50.958;3.592;2022-12-18T16:10:54;40.78;;;23.80;;
54167;SDS011;40072;50.958;3.592;2022-12-18T16:13:21;46.08;;;25.00;;
54167;SDS011;40072;50.958;3.592;2022-12-18T16:15:47;46.25;;;24.10;;
54167;SDS011;40072;50.958;3.592;2022-12-18T16:18:13;47.25;;;25.23;;
54167;SDS011;40072;50.958;3.592;2022-12-18T16:20:39;43.33;;;24.58;;
54167;SDS011;40072;50.958;3.592;2022-12-18T16:23:05;40.55;;;22.92;;
54167;SDS011;40072;50.958;3.592;2022-12-18T16:25:31;42.97;;;25.52;;
54167;SDS011;40072;50.958;3.592;2022-12-18T16:27:56;46.65;;;23.67;;
54167;SDS011;40072;50.958;3.592;2022-12-18T16:30:23;46.30;;;24.33;;
54167;SDS011;40072;50.958;3.592;2022-12-18T16:32:52;45.67;;;24.13;;
54167;SDS011;40072;50.958;3.592;2022-12-18T16:35:21;46.33;;;23.90;;
54167;SDS011;40072;50.958;3.592;2022-12-18T16:37:47;47.30;;;25.55;;
54167;SDS011;40072;50.958;3.592;2022-12-18T16:40:13;47.13;;;24.83;;
54167;SDS011;40072;50.958;3.592;2022-12-18T16:42:41;42.22;;;24.25;;
54167;SDS011;40072;50.958;3.592;2022-12-18T16:45:09;46.03;;;25.20;;
54167;SDS011;40072;50.958;3.592;2022-12-18T16:47:40;40.53;;;24.40;;
54167;SDS011;40072;50.958;3.592;2022-12-18T16:50:06;44.53;;;25.13;;
54167;SDS011;40072;50.958;3.592;2022-12-18T16:52:32;41.25;;;23.25;;